sensor_id;sensor_type;location;lat;lon;timestamp;P1;durP1;ratioP1;P2;durP2;ratioP2
84482;SDS011;74703;51.284;22.590;2024-01-27T00:02:29;25.27;;;14.88;;
84482;SDS011;74703;51.284;22.590;2024-01-27T00:07:29;25.38;;;14.88;;
84482;SDS011;74703;51.284;22.590;2024-01-27T00:12:30;21.95;;;14.20;;
84482;SDS011;74703;51.284;22.590;2024-01-27T00:17:31;24.95;;;15.45;;
84482;SDS011;74703;51.284;22.590;2024-01-27T00:22:31;29.55;;;15.20;;
84482;SDS011;74703;51.284;22.590;2024-01-27T00:27:32;27.10;;;14.63;;
84482;SDS011;74703;51.284;22.590;2024-01-27T00:32:33;31.08;;;16.58;;
84482;SDS011;74703;51.284;22.590;2024-01-27T00:37:34;31.60;;;16.75;;
84482;SDS011;74703;51.284;22.590;2024-01-27T00:42:34;28.15;;;15.73;;
84482;SDS011;74703;51.284;22.590;2024-01-27T00:47:35;30.08;;;15.90;;
84482;SDS011;74703;51.284;22.590;2024-01-27T00:52:35;24.42;;;15.13;;
84482;SDS011;74703;51.284;22.590;2024-01-27T00:57:36;24.50;;;15.15;;
84482;SDS011;74703;51.284;22.590;2024-01-27T01:02:39;20.48;;;14.07;;
84482;SDS011;74703;51.284;22.590;2024-01-27T01:07:41;19.88;;;12.85;;
84482;SDS011;74703;51.284;22.590;2024-01-27T01:12:41;21.88;;;12.85;;
84482;SDS011;74703;51.284;22.590;2024-01-27T01:17:44;21.80;;;12.48;;
84482;SDS011;74703;51.284;22.590;2024-01-27T01:22:44;19.27;;;12.50;;
84482;SDS011;74703;51.284;22.590;2024-01-27T01:27:45;23.27;;;13.32;;
84482;SDS011;74703;51.284;22.590;2024-01-27T01:32:46;34.58;;;17.08;;
84482;SDS011;74703;51.284;22.590;2024-01-27T01:37:47;19.15;;;13.32;;
84482;SDS011;74703;51.284;22.590;2024-01-27T01:42:51;20.08;;;13.50;;
84482;SDS011;74703;51.284;22.590;2024-01-27T01:47:52;20.38;;;11.93;;
84482;SDS011;74703;51.284;22.590;2024-01-27T01:52:53;18.98;;;11.93;;
84482;SDS011;74703;51.284;22.590;2024-01-27T01:57:54;22.65;;;13.52;;
84482;SDS011;74703;51.284;22.590;2024-01-27T02:02:54;22.42;;;14.80;;
84482;SDS011;74703;51.284;22.590;2024-01-27T02:07:55;24.77;;;14.80;;
84482;SDS011;74703;51.284;22.590;2024-01-27T02:12:59;24.83;;;15.90;;
84482;SDS011;74703;51.284;22.590;2024-01-27T02:17:59;27.40;;;14.73;;
84482;SDS011;74703;51.284;22.590;2024-01-27T02:23:00;22.40;;;14.80;;
84482;SDS011;74703;51.284;22.590;2024-01-27T02:28:04;23.88;;;12.65;;
84482;SDS011;74703;51.284;22.590;2024-01-27T02:33:05;20.58;;;11.00;;
84482;SDS011;74703;51.284;22.590;2024-01-27T02:38:06;18.80;;;9.23;;
84482;SDS011;74703;51.284;22.590;2024-01-27T02:43:06;15.65;;;6.70;;
84482;SDS011;74703;51.284;22.590;2024-01-27T02:48:07;13.10;;;5.25;;
84482;SDS011;74703;51.284;22.590;2024-01-27T02:53:07;7.28;;;3.45;;
84482;SDS011;74703;51.284;22.590;2024-01-27T02:58:08;7.53;;;3.17;;
84482;SDS011;74703;51.284;22.590;2024-01-27T03:03:09;8.25;;;3.30;;
84482;SDS011;74703;51.284;22.590;2024-01-27T03:08:10;6.32;;;3.10;;
84482;SDS011;74703;51.284;22.590;2024-01-27T03:13:10;10.57;;;5.22;;
84482;SDS011;74703;51.284;22.590;2024-01-27T03:18:11;4.68;;;2.70;;
84482;SDS011;74703;51.284;22.590;2024-01-27T03:23:11;9.45;;;2.75;;
84482;SDS011;74703;51.284;22.590;2024-01-27T03:28:12;7.93;;;2.05;;
84482;SDS011;74703;51.284;22.590;2024-01-27T03:33:13;5.30;;;1.52;;
84482;SDS011;74703;51.284;22.590;2024-01-27T03:38:13;8.00;;;2.50;;
84482;SDS011;74703;51.284;22.590;2024-01-27T03:43:14;9.10;;;3.47;;
84482;SDS011;74703;51.284;22.590;2024-01-27T03:48:14;10.30;;;2.40;;
84482;SDS011;74703;51.284;22.590;2024-01-27T03:53:15;13.40;;;3.92;;
84482;SDS011;74703;51.284;22.590;2024-01-27T03:58:16;12.57;;;3.47;;
84482;SDS011;74703;51.284;22.590;2024-01-27T04:03:16;13.98;;;4.80;;
84482;SDS011;74703;51.284;22.590;2024-01-27T04:08:17;20.00;;;7.45;;
84482;SDS011;74703;51.284;22.590;2024-01-27T04:13:18;14.50;;;3.78;;
84482;SDS011;74703;51.284;22.590;2024-01-27T04:18:18;15.60;;;3.83;;
84482;SDS011;74703;51.284;22.590;2024-01-27T04:23:19;8.70;;;2.83;;
84482;SDS011;74703;51.284;22.590;2024-01-27T04:28:20;14.32;;;3.72;;
84482;SDS011;74703;51.284;22.590;2024-01-27T04:33:20;16.50;;;3.08;;
84482;SDS011;74703;51.284;22.590;2024-01-27T04:38:21;12.48;;;2.97;;
84482;SDS011;74703;51.284;22.590;2024-01-27T04:43:21;11.68;;;3.50;;
84482;SDS011;74703;51.284;22.590;2024-01-27T04:48:22;12.90;;;4.60;;
84482;SDS011;74703;51.284;22.590;2024-01-27T04:53:23;13.50;;;4.57;;
84482;SDS011;74703;51.284;22.590;2024-01-27T04:58:23;13.80;;;2.97;;
84482;SDS011;74703;51.284;22.590;2024-01-27T05:03:24;7.65;;;2.83;;
84482;SDS011;74703;51.284;22.590;2024-01-27T05:08:25;6.30;;;2.25;;
84482;SDS011;74703;51.284;22.590;2024-01-27T05:13:25;14.13;;;2.80;;
84482;SDS011;74703;51.284;22.590;2024-01-27T05:18:26;10.25;;;2.60;;
84482;SDS011;74703;51.284;22.590;2024-01-27T05:23:26;20.10;;;3.00;;
84482;SDS011;74703;51.284;22.590;2024-01-27T05:28:27;11.00;;;2.72;;
84482;SDS011;74703;51.284;22.590;2024-01-27T05:33:28;14.55;;;3.50;;
84482;SDS011;74703;51.284;22.590;2024-01-27T05:38:28;12.90;;;3.50;;
84482;SDS011;74703;51.284;22.590;2024-01-27T05:43:30;24.38;;;4.90;;
84482;SDS011;74703;51.284;22.590;2024-01-27T05:48:31;9.23;;;3.05;;
84482;SDS011;74703;51.284;22.590;2024-01-27T05:53:34;8.85;;;2.95;;
84482;SDS011;74703;51.284;22.590;2024-01-27T05:58:36;7.95;;;2.92;;
84482;SDS011;74703;51.284;22.590;2024-01-27T06:03:36;13.00;;;3.42;;
84482;SDS011;74703;51.284;22.590;2024-01-27T06:08:37;14.18;;;4.25;;
84482;SDS011;74703;51.284;22.590;2024-01-27T06:13:38;11.90;;;3.05;;
84482;SDS011;74703;51.284;22.590;2024-01-27T06:18:43;12.57;;;3.60;;
84482;SDS011;74703;51.284;22.590;2024-01-27T06:23:44;8.27;;;2.75;;
84482;SDS011;74703;51.284;22.590;2024-01-27T06:28:45;17.25;;;7.28;;
84482;SDS011;74703;51.284;22.590;2024-01-27T06:33:45;11.70;;;2.80;;
84482;SDS011;74703;51.284;22.590;2024-01-27T06:38:46;10.10;;;3.75;;
84482;SDS011;74703;51.284;22.590;2024-01-27T06:43:47;13.95;;;3.40;;
84482;SDS011;74703;51.284;22.590;2024-01-27T06:48:47;9.70;;;2.65;;
84482;SDS011;74703;51.284;22.590;2024-01-27T06:53:48;8.57;;;3.38;;
84482;SDS011;74703;51.284;22.590;2024-01-27T06:58:48;11.02;;;3.05;;
84482;SDS011;74703;51.284;22.590;2024-01-27T07:03:49;14.02;;;4.05;;
84482;SDS011;74703;51.284;22.590;2024-01-27T07:08:49;16.50;;;4.70;;
84482;SDS011;74703;51.284;22.590;2024-01-27T07:13:50;15.45;;;3.63;;
84482;SDS011;74703;51.284;22.590;2024-01-27T07:18:50;13.07;;;4.07;;
84482;SDS011;74703;51.284;22.590;2024-01-27T07:23:52;12.25;;;3.03;;
84482;SDS011;74703;51.284;22.590;2024-01-27T07:28:54;16.55;;;4.10;;
84482;SDS011;74703;51.284;22.590;2024-01-27T07:33:54;18.17;;;3.10;;
84482;SDS011;74703;51.284;22.590;2024-01-27T07:38:55;14.73;;;3.45;;
84482;SDS011;74703;51.284;22.590;2024-01-27T07:43:56;15.25;;;3.47;;
84482;SDS011;74703;51.284;22.590;2024-01-27T07:48:56;12.55;;;3.58;;
84482;SDS011;74703;51.284;22.590;2024-01-27T07:53:57;12.70;;;3.40;;
84482;SDS011;74703;51.284;22.590;2024-01-27T07:58:58;16.75;;;5.22;;
84482;SDS011;74703;51.284;22.590;2024-01-27T08:03:59;13.63;;;3.92;;
84482;SDS011;74703;51.284;22.590;2024-01-27T08:08:59;21.50;;;5.43;;
84482;SDS011;74703;51.284;22.590;2024-01-27T08:14:00;18.65;;;3.50;;
84482;SDS011;74703;51.284;22.590;2024-01-27T08:19:01;15.68;;;4.60;;
84482;SDS011;74703;51.284;22.590;2024-01-27T08:24:01;16.23;;;5.47;;
84482;SDS011;74703;51.284;22.590;2024-01-27T08:29:02;26.52;;;7.47;;
84482;SDS011;74703;51.284;22.590;2024-01-27T08:34:03;10.48;;;4.38;;
84482;SDS011;74703;51.284;22.590;2024-01-27T08:39:05;17.10;;;3.90;;
84482;SDS011;74703;51.284;22.590;2024-01-27T08:44:07;10.48;;;3.75;;
84482;SDS011;74703;51.284;22.590;2024-01-27T08:49:08;14.57;;;5.07;;
84482;SDS011;74703;51.284;22.590;2024-01-27T08:54:08;17.13;;;3.13;;
84482;SDS011;74703;51.284;22.590;2024-01-27T08:59:09;15.52;;;3.75;;
84482;SDS011;74703;51.284;22.590;2024-01-27T09:04:10;12.48;;;3.58;;
84482;SDS011;74703;51.284;22.590;2024-01-27T09:09:10;13.10;;;4.20;;
84482;SDS011;74703;51.284;22.590;2024-01-27T09:14:12;10.82;;;3.97;;
84482;SDS011;74703;51.284;22.590;2024-01-27T09:19:15;13.70;;;4.47;;
84482;SDS011;74703;51.284;22.590;2024-01-27T09:24:15;14.80;;;4.85;;
84482;SDS011;74703;51.284;22.590;2024-01-27T09:29:16;13.57;;;4.78;;
84482;SDS011;74703;51.284;22.590;2024-01-27T09:34:17;15.98;;;4.60;;
84482;SDS011;74703;51.284;22.590;2024-01-27T09:39:18;12.52;;;3.88;;
84482;SDS011;74703;51.284;22.590;2024-01-27T09:44:19;12.43;;;4.43;;
84482;SDS011;74703;51.284;22.590;2024-01-27T09:49:22;10.23;;;3.85;;
84482;SDS011;74703;51.284;22.590;2024-01-27T09:54:28;11.32;;;3.10;;
84482;SDS011;74703;51.284;22.590;2024-01-27T09:59:29;7.70;;;3.58;;
84482;SDS011;74703;51.284;22.590;2024-01-27T10:04:32;13.70;;;3.85;;
84482;SDS011;74703;51.284;22.590;2024-01-27T10:09:34;6.43;;;4.38;;
84482;SDS011;74703;51.284;22.590;2024-01-27T10:14:41;14.88;;;5.03;;
84482;SDS011;74703;51.284;22.590;2024-01-27T10:19:50;8.63;;;3.63;;
84482;SDS011;74703;51.284;22.590;2024-01-27T10:25:05;11.68;;;4.25;;
84482;SDS011;74703;51.284;22.590;2024-01-27T10:30:07;8.95;;;4.03;;
84482;SDS011;74703;51.284;22.590;2024-01-27T10:35:18;11.40;;;4.97;;
84482;SDS011;74703;51.284;22.590;2024-01-27T10:40:19;9.25;;;4.68;;
84482;SDS011;74703;51.284;22.590;2024-01-27T10:45:30;13.45;;;5.32;;
84482;SDS011;74703;51.284;22.590;2024-01-27T10:50:42;11.90;;;4.50;;
84482;SDS011;74703;51.284;22.590;2024-01-27T10:55:43;10.70;;;4.15;;
84482;SDS011;74703;51.284;22.590;2024-01-27T11:00:45;13.32;;;4.22;;
84482;SDS011;74703;51.284;22.590;2024-01-27T11:05:48;9.88;;;4.10;;
84482;SDS011;74703;51.284;22.590;2024-01-27T11:10:51;9.18;;;4.75;;
84482;SDS011;74703;51.284;22.590;2024-01-27T11:15:52;11.82;;;5.57;;
84482;SDS011;74703;51.284;22.590;2024-01-27T11:20:54;9.38;;;4.03;;
84482;SDS011;74703;51.284;22.590;2024-01-27T11:26:02;11.88;;;4.70;;
84482;SDS011;74703;51.284;22.590;2024-01-27T11:31:04;12.60;;;4.47;;
84482;SDS011;74703;51.284;22.590;2024-01-27T11:36:05;11.05;;;3.88;;
84482;SDS011;74703;51.284;22.590;2024-01-27T11:41:06;10.80;;;4.43;;
84482;SDS011;74703;51.284;22.590;2024-01-27T11:46:07;9.73;;;4.85;;
84482;SDS011;74703;51.284;22.590;2024-01-27T11:51:12;12.75;;;6.38;;
84482;SDS011;74703;51.284;22.590;2024-01-27T11:56:13;7.65;;;5.18;;
84482;SDS011;74703;51.284;22.590;2024-01-27T12:01:14;11.73;;;5.35;;
84482;SDS011;74703;51.284;22.590;2024-01-27T12:06:15;13.32;;;6.93;;
84482;SDS011;74703;51.284;22.590;2024-01-27T12:11:16;9.82;;;6.03;;
84482;SDS011;74703;51.284;22.590;2024-01-27T12:16:17;10.80;;;6.05;;
84482;SDS011;74703;51.284;22.590;2024-01-27T12:21:18;13.93;;;6.22;;
84482;SDS011;74703;51.284;22.590;2024-01-27T12:26:20;9.73;;;5.30;;
84482;SDS011;74703;51.284;22.590;2024-01-27T12:31:22;11.07;;;5.88;;
84482;SDS011;74703;51.284;22.590;2024-01-27T12:36:24;10.23;;;5.07;;
84482;SDS011;74703;51.284;22.590;2024-01-27T12:41:25;9.93;;;6.78;;
84482;SDS011;74703;51.284;22.590;2024-01-27T12:46:27;12.75;;;7.35;;
84482;SDS011;74703;51.284;22.590;2024-01-27T12:51:28;13.18;;;6.03;;
84482;SDS011;74703;51.284;22.590;2024-01-27T12:56:28;9.15;;;6.35;;
84482;SDS011;74703;51.284;22.590;2024-01-27T13:01:29;8.75;;;4.28;;
84482;SDS011;74703;51.284;22.590;2024-01-27T13:06:30;7.10;;;4.18;;
84482;SDS011;74703;51.284;22.590;2024-01-27T13:11:30;8.15;;;4.30;;
84482;SDS011;74703;51.284;22.590;2024-01-27T13:16:31;8.32;;;4.70;;
84482;SDS011;74703;51.284;22.590;2024-01-27T13:21:32;7.75;;;4.30;;
84482;SDS011;74703;51.284;22.590;2024-01-27T13:26:32;7.40;;;3.08;;
84482;SDS011;74703;51.284;22.590;2024-01-27T13:31:39;7.18;;;3.65;;
84482;SDS011;74703;51.284;22.590;2024-01-27T13:36:40;8.15;;;3.63;;
84482;SDS011;74703;51.284;22.590;2024-01-27T13:41:40;6.38;;;3.78;;
84482;SDS011;74703;51.284;22.590;2024-01-27T13:46:44;6.07;;;3.35;;
84482;SDS011;74703;51.284;22.590;2024-01-27T13:51:48;6.90;;;3.90;;
84482;SDS011;74703;51.284;22.590;2024-01-27T13:56:51;8.02;;;4.47;;
84482;SDS011;74703;51.284;22.590;2024-01-27T14:01:51;10.35;;;4.13;;
84482;SDS011;74703;51.284;22.590;2024-01-27T14:06:53;10.40;;;4.25;;
84482;SDS011;74703;51.284;22.590;2024-01-27T14:11:54;11.68;;;3.90;;
84482;SDS011;74703;51.284;22.590;2024-01-27T14:16:54;13.27;;;5.30;;
84482;SDS011;74703;51.284;22.590;2024-01-27T14:21:55;8.88;;;3.75;;
84482;SDS011;74703;51.284;22.590;2024-01-27T14:26:58;6.13;;;3.08;;
84482;SDS011;74703;51.284;22.590;2024-01-27T14:32:02;4.57;;;3.08;;
84482;SDS011;74703;51.284;22.590;2024-01-27T14:37:03;6.63;;;4.13;;
84482;SDS011;74703;51.284;22.590;2024-01-27T14:42:04;10.07;;;4.65;;
84482;SDS011;74703;51.284;22.590;2024-01-27T14:47:06;8.57;;;5.50;;
84482;SDS011;74703;51.284;22.590;2024-01-27T14:52:08;9.98;;;4.47;;
84482;SDS011;74703;51.284;22.590;2024-01-27T14:57:09;12.23;;;5.22;;
84482;SDS011;74703;51.284;22.590;2024-01-27T15:02:09;12.07;;;5.97;;
84482;SDS011;74703;51.284;22.590;2024-01-27T15:07:10;12.77;;;7.30;;
84482;SDS011;74703;51.284;22.590;2024-01-27T15:12:15;11.13;;;5.75;;
84482;SDS011;74703;51.284;22.590;2024-01-27T15:17:17;11.52;;;5.90;;
84482;SDS011;74703;51.284;22.590;2024-01-27T15:22:18;12.85;;;7.43;;
84482;SDS011;74703;51.284;22.590;2024-01-27T15:27:19;12.02;;;6.40;;
84482;SDS011;74703;51.284;22.590;2024-01-27T15:32:20;8.57;;;5.60;;
84482;SDS011;74703;51.284;22.590;2024-01-27T15:37:23;12.98;;;7.28;;
84482;SDS011;74703;51.284;22.590;2024-01-27T15:42:23;13.98;;;7.20;;
84482;SDS011;74703;51.284;22.590;2024-01-27T15:47:24;17.23;;;10.57;;
84482;SDS011;74703;51.284;22.590;2024-01-27T15:52:24;11.73;;;8.10;;
84482;SDS011;74703;51.284;22.590;2024-01-27T15:57:25;15.57;;;8.88;;
84482;SDS011;74703;51.284;22.590;2024-01-27T16:02:27;18.00;;;10.30;;
84482;SDS011;74703;51.284;22.590;2024-01-27T16:07:29;18.50;;;10.63;;
84482;SDS011;74703;51.284;22.590;2024-01-27T16:12:29;20.77;;;12.18;;
84482;SDS011;74703;51.284;22.590;2024-01-27T16:17:30;19.58;;;10.80;;
84482;SDS011;74703;51.284;22.590;2024-01-27T16:22:31;15.90;;;10.05;;
84482;SDS011;74703;51.284;22.590;2024-01-27T16:27:32;16.30;;;9.48;;
84482;SDS011;74703;51.284;22.590;2024-01-27T16:32:32;16.10;;;9.13;;
84482;SDS011;74703;51.284;22.590;2024-01-27T16:37:33;16.73;;;10.32;;
84482;SDS011;74703;51.284;22.590;2024-01-27T16:42:34;16.85;;;11.13;;
84482;SDS011;74703;51.284;22.590;2024-01-27T16:47:36;15.10;;;9.43;;
84482;SDS011;74703;51.284;22.590;2024-01-27T16:52:37;14.80;;;10.07;;
84482;SDS011;74703;51.284;22.590;2024-01-27T16:57:38;16.83;;;10.00;;
84482;SDS011;74703;51.284;22.590;2024-01-27T17:02:38;14.68;;;10.18;;
84482;SDS011;74703;51.284;22.590;2024-01-27T17:07:39;19.15;;;11.98;;
84482;SDS011;74703;51.284;22.590;2024-01-27T17:12:40;21.25;;;12.07;;
84482;SDS011;74703;51.284;22.590;2024-01-27T17:17:40;19.65;;;11.70;;
84482;SDS011;74703;51.284;22.590;2024-01-27T17:22:41;25.05;;;14.20;;
84482;SDS011;74703;51.284;22.590;2024-01-27T17:27:42;18.65;;;12.27;;
84482;SDS011;74703;51.284;22.590;2024-01-27T17:32:43;21.80;;;12.55;;
84482;SDS011;74703;51.284;22.590;2024-01-27T17:37:43;20.20;;;12.05;;
84482;SDS011;74703;51.284;22.590;2024-01-27T17:42:44;22.05;;;12.35;;
84482;SDS011;74703;51.284;22.590;2024-01-27T17:47:46;16.30;;;10.57;;
84482;SDS011;74703;51.284;22.590;2024-01-27T17:52:49;18.38;;;10.68;;
84482;SDS011;74703;51.284;22.590;2024-01-27T17:57:49;18.30;;;11.85;;
84482;SDS011;74703;51.284;22.590;2024-01-27T18:02:50;24.88;;;13.32;;
84482;SDS011;74703;51.284;22.590;2024-01-27T18:07:51;24.05;;;11.45;;
84482;SDS011;74703;51.284;22.590;2024-01-27T18:12:51;21.77;;;12.98;;
84482;SDS011;74703;51.284;22.590;2024-01-27T18:17:51;17.52;;;11.10;;
84482;SDS011;74703;51.284;22.590;2024-01-27T18:22:53;22.27;;;12.63;;
84482;SDS011;74703;51.284;22.590;2024-01-27T18:27:54;19.95;;;13.52;;
84482;SDS011;74703;51.284;22.590;2024-01-27T18:32:55;16.23;;;10.88;;
84482;SDS011;74703;51.284;22.590;2024-01-27T18:37:55;20.52;;;12.35;;
84482;SDS011;74703;51.284;22.590;2024-01-27T18:42:56;18.38;;;11.55;;
84482;SDS011;74703;51.284;22.590;2024-01-27T18:47:56;19.73;;;11.65;;
84482;SDS011;74703;51.284;22.590;2024-01-27T18:52:59;15.25;;;11.10;;
84482;SDS011;74703;51.284;22.590;2024-01-27T18:58:00;15.50;;;9.73;;
84482;SDS011;74703;51.284;22.590;2024-01-27T19:03:01;13.95;;;9.38;;
84482;SDS011;74703;51.284;22.590;2024-01-27T19:08:09;16.08;;;9.95;;
84482;SDS011;74703;51.284;22.590;2024-01-27T19:13:11;14.88;;;9.02;;
84482;SDS011;74703;51.284;22.590;2024-01-27T19:18:12;13.88;;;7.72;;
84482;SDS011;74703;51.284;22.590;2024-01-27T19:23:13;11.52;;;7.45;;
84482;SDS011;74703;51.284;22.590;2024-01-27T19:28:14;8.23;;;5.35;;
84482;SDS011;74703;51.284;22.590;2024-01-27T19:33:14;9.52;;;5.60;;
84482;SDS011;74703;51.284;22.590;2024-01-27T19:38:15;9.13;;;5.43;;
84482;SDS011;74703;51.284;22.590;2024-01-27T19:43:16;9.93;;;6.10;;
84482;SDS011;74703;51.284;22.590;2024-01-27T19:48:17;13.55;;;6.93;;
84482;SDS011;74703;51.284;22.590;2024-01-27T19:53:18;8.07;;;4.68;;
84482;SDS011;74703;51.284;22.590;2024-01-27T19:58:19;10.05;;;5.80;;
84482;SDS011;74703;51.284;22.590;2024-01-27T20:03:20;12.45;;;7.03;;
84482;SDS011;74703;51.284;22.590;2024-01-27T20:08:20;9.00;;;6.70;;
84482;SDS011;74703;51.284;22.590;2024-01-27T20:13:21;10.95;;;6.40;;
84482;SDS011;74703;51.284;22.590;2024-01-27T20:18:22;9.68;;;5.80;;
84482;SDS011;74703;51.284;22.590;2024-01-27T20:23:22;11.75;;;6.68;;
84482;SDS011;74703;51.284;22.590;2024-01-27T20:28:23;12.18;;;7.85;;
84482;SDS011;74703;51.284;22.590;2024-01-27T20:33:25;10.88;;;6.38;;
84482;SDS011;74703;51.284;22.590;2024-01-27T20:38:26;9.68;;;6.13;;
84482;SDS011;74703;51.284;22.590;2024-01-27T20:43:29;8.00;;;5.55;;
84482;SDS011;74703;51.284;22.590;2024-01-27T20:48:31;10.52;;;6.70;;
84482;SDS011;74703;51.284;22.590;2024-01-27T20:53:32;12.55;;;7.45;;
84482;SDS011;74703;51.284;22.590;2024-01-27T20:58:33;10.88;;;6.70;;
84482;SDS011;74703;51.284;22.590;2024-01-27T21:03:33;11.35;;;8.27;;
84482;SDS011;74703;51.284;22.590;2024-01-27T21:08:36;12.18;;;7.03;;
84482;SDS011;74703;51.284;22.590;2024-01-27T21:13:36;10.73;;;6.90;;
84482;SDS011;74703;51.284;22.590;2024-01-27T21:18:37;10.02;;;6.53;;
84482;SDS011;74703;51.284;22.590;2024-01-27T21:23:38;12.57;;;7.15;;
84482;SDS011;74703;51.284;22.590;2024-01-27T21:28:38;12.70;;;8.07;;
84482;SDS011;74703;51.284;22.590;2024-01-27T21:33:40;11.52;;;8.40;;
84482;SDS011;74703;51.284;22.590;2024-01-27T21:38:42;12.20;;;7.57;;
84482;SDS011;74703;51.284;22.590;2024-01-27T21:43:47;10.48;;;7.63;;
84482;SDS011;74703;51.284;22.590;2024-01-27T21:48:50;12.10;;;8.10;;
84482;SDS011;74703;51.284;22.590;2024-01-27T21:53:51;17.30;;;9.93;;
84482;SDS011;74703;51.284;22.590;2024-01-27T21:58:52;12.52;;;8.57;;
84482;SDS011;74703;51.284;22.590;2024-01-27T22:03:53;12.65;;;8.68;;
84482;SDS011;74703;51.284;22.590;2024-01-27T22:08:54;16.52;;;10.13;;
84482;SDS011;74703;51.284;22.590;2024-01-27T22:13:56;14.90;;;9.80;;
84482;SDS011;74703;51.284;22.590;2024-01-27T22:18:58;13.82;;;9.40;;
84482;SDS011;74703;51.284;22.590;2024-01-27T22:23:58;15.35;;;9.90;;
84482;SDS011;74703;51.284;22.590;2024-01-27T22:28:59;15.00;;;8.68;;
84482;SDS011;74703;51.284;22.590;2024-01-27T22:33:59;13.20;;;9.02;;
84482;SDS011;74703;51.284;22.590;2024-01-27T22:39:00;15.90;;;9.30;;
84482;SDS011;74703;51.284;22.590;2024-01-27T22:44:01;15.77;;;10.30;;
84482;SDS011;74703;51.284;22.590;2024-01-27T22:49:01;14.63;;;9.75;;
84482;SDS011;74703;51.284;22.590;2024-01-27T22:54:02;15.95;;;10.70;;
84482;SDS011;74703;51.284;22.590;2024-01-27T22:59:02;14.45;;;10.15;;
84482;SDS011;74703;51.284;22.590;2024-01-27T23:04:03;16.60;;;10.38;;
84482;SDS011;74703;51.284;22.590;2024-01-27T23:09:03;19.02;;;12.27;;
84482;SDS011;74703;51.284;22.590;2024-01-27T23:14:06;18.83;;;11.07;;
84482;SDS011;74703;51.284;22.590;2024-01-27T23:19:07;13.57;;;9.63;;
84482;SDS011;74703;51.284;22.590;2024-01-27T23:24:12;13.18;;;8.32;;
84482;SDS011;74703;51.284;22.590;2024-01-27T23:29:13;12.90;;;8.27;;
84482;SDS011;74703;51.284;22.590;2024-01-27T23:34:14;15.07;;;7.88;;
84482;SDS011;74703;51.284;22.590;2024-01-27T23:39:15;11.63;;;6.90;;
84482;SDS011;74703;51.284;22.590;2024-01-27T23:44:16;10.38;;;6.70;;
84482;SDS011;74703;51.284;22.590;2024-01-27T23:49:17;9.55;;;6.65;;
84482;SDS011;74703;51.284;22.590;2024-01-27T23:54:18;10.00;;;6.47;;
84482;SDS011;74703;51.284;22.590;2024-01-27T23:59:18;9.05;;;6.22;;
